sensor_id;sensor_type;location;lat;lon;timestamp;pressure;altitude;pressure_sealevel;temperature;humidity
27429;BME280;14881;48.092;11.574;2023-04-01T00:01:21;94236.63;;;7.06;100.00
27429;BME280;14881;48.092;11.574;2023-04-01T00:03:49;94247.72;;;7.04;100.00
27429;BME280;14881;48.092;11.574;2023-04-01T00:06:18;94241.31;;;7.00;100.00
27429;BME280;14881;48.092;11.574;2023-04-01T00:08:47;94244.53;;;7.02;100.00
27429;BME280;14881;48.092;11.574;2023-04-01T00:11:15;94240.63;;;7.08;100.00
27429;BME280;14881;48.092;11.574;2023-04-01T00:13:46;94236.03;;;7.09;100.00
27429;BME280;14881;48.092;11.574;2023-04-01T00:16:15;94231.91;;;7.11;100.00
27429;BME280;14881;48.092;11.574;2023-04-01T00:18:48;94213.53;;;7.13;100.00
27429;BME280;14881;48.092;11.574;2023-04-01T00:21:17;94231.44;;;7.09;100.00
27429;BME280;14881;48.092;11.574;2023-04-01T00:23:46;94227.44;;;7.07;100.00
27429;BME280;14881;48.092;11.574;2023-04-01T00:26:14;94222.34;;;7.05;100.00
27429;BME280;14881;48.092;11.574;2023-04-01T00:28:45;94214.53;;;7.04;100.00
27429;BME280;14881;48.092;11.574;2023-04-01T00:31:13;94213.53;;;6.99;100.00
27429;BME280;14881;48.092;11.574;2023-04-01T00:33:41;94207.91;;;6.96;100.00
27429;BME280;14881;48.092;11.574;2023-04-01T00:36:10;94217.91;;;6.95;100.00
27429;BME280;14881;48.092;11.574;2023-04-01T00:38:39;94212.31;;;6.92;100.00
27429;BME280;14881;48.092;11.574;2023-04-01T00:41:09;94216.50;;;6.98;100.00
27429;BME280;14881;48.092;11.574;2023-04-01T00:43:51;94210.91;;;6.94;100.00
27429;BME280;14881;48.092;11.574;2023-04-01T00:46:19;94210.44;;;6.92;100.00
27429;BME280;14881;48.092;11.574;2023-04-01T00:48:49;94217.22;;;6.90;100.00
27429;BME280;14881;48.092;11.574;2023-04-01T00:51:20;94218.53;;;6.92;100.00
27429;BME280;14881;48.092;11.574;2023-04-01T00:53:51;94209.31;;;6.93;100.00
27429;BME280;14881;48.092;11.574;2023-04-01T00:56:22;94218.19;;;6.94;100.00
27429;BME280;14881;48.092;11.574;2023-04-01T00:58:57;94216.00;;;6.96;100.00
27429;BME280;14881;48.092;11.574;2023-04-01T01:01:27;94208.22;;;6.94;100.00
27429;BME280;14881;48.092;11.574;2023-04-01T01:03:57;94203.81;;;6.98;100.00
27429;BME280;14881;48.092;11.574;2023-04-01T01:06:38;94208.41;;;6.98;100.00
27429;BME280;14881;48.092;11.574;2023-04-01T01:09:22;94216.44;;;7.03;100.00
27429;BME280;14881;48.092;11.574;2023-04-01T01:12:01;94208.25;;;7.08;100.00
27429;BME280;14881;48.092;11.574;2023-04-01T01:14:39;94210.81;;;7.13;100.00
27429;BME280;14881;48.092;11.574;2023-04-01T01:17:16;94213.63;;;7.22;100.00
27429;BME280;14881;48.092;11.574;2023-04-01T01:23:16;94206.13;;;7.32;100.00
27429;BME280;14881;48.092;11.574;2023-04-01T01:25:58;94209.31;;;7.34;100.00
27429;BME280;14881;48.092;11.574;2023-04-01T01:28:44;94208.00;;;7.32;100.00
27429;BME280;14881;48.092;11.574;2023-04-01T01:31:20;94200.41;;;7.34;100.00
27429;BME280;14881;48.092;11.574;2023-04-01T01:34:02;94208.44;;;7.39;100.00
27429;BME280;14881;48.092;11.574;2023-04-01T01:36:35;94203.03;;;7.39;100.00
27429;BME280;14881;48.092;11.574;2023-04-01T01:39:07;94202.63;;;7.32;100.00
27429;BME280;14881;48.092;11.574;2023-04-01T01:41:38;94210.50;;;7.28;100.00
27429;BME280;14881;48.092;11.574;2023-04-01T01:44:08;94198.00;;;7.32;100.00
27429;BME280;14881;48.092;11.574;2023-04-01T01:46:38;94203.84;;;7.26;100.00
27429;BME280;14881;48.092;11.574;2023-04-01T01:49:21;94196.63;;;7.21;100.00
27429;BME280;14881;48.092;11.574;2023-04-01T01:51:50;94192.13;;;7.17;100.00
27429;BME280;14881;48.092;11.574;2023-04-01T01:54:19;94192.13;;;7.17;100.00
27429;BME280;14881;48.092;11.574;2023-04-01T01:56:49;94185.13;;;7.16;100.00
27429;BME280;14881;48.092;11.574;2023-04-01T01:59:20;94193.00;;;7.12;100.00
27429;BME280;14881;48.092;11.574;2023-04-01T02:01:53;94201.91;;;7.13;100.00
27429;BME280;14881;48.092;11.574;2023-04-01T02:04:23;94191.91;;;7.13;100.00
27429;BME280;14881;48.092;11.574;2023-04-01T02:06:56;94201.72;;;7.23;100.00
27429;BME280;14881;48.092;11.574;2023-04-01T02:09:26;94199.41;;;7.30;100.00
27429;BME280;14881;48.092;11.574;2023-04-01T02:11:57;94213.63;;;7.36;100.00
27429;BME280;14881;48.092;11.574;2023-04-01T02:14:28;94208.22;;;7.36;100.00
27429;BME280;14881;48.092;11.574;2023-04-01T02:16:58;94222.91;;;7.29;100.00
27429;BME280;14881;48.092;11.574;2023-04-01T02:19:32;94208.00;;;7.32;100.00
27429;BME280;14881;48.092;11.574;2023-04-01T02:22:07;94221.53;;;7.32;100.00
27429;BME280;14881;48.092;11.574;2023-04-01T02:24:37;94217.13;;;7.36;100.00
27429;BME280;14881;48.092;11.574;2023-04-01T02:27:07;94218.22;;;7.35;100.00
27429;BME280;14881;48.092;11.574;2023-04-01T02:29:36;94212.81;;;7.35;100.00
27429;BME280;14881;48.092;11.574;2023-04-01T02:32:04;94216.31;;;7.36;100.00
27429;BME280;14881;48.092;11.574;2023-04-01T02:34:33;94216.63;;;7.34;100.00
27429;BME280;14881;48.092;11.574;2023-04-01T02:37:01;94208.81;;;7.32;100.00
27429;BME280;14881;48.092;11.574;2023-04-01T02:39:30;94214.81;;;7.29;100.00
27429;BME280;14881;48.092;11.574;2023-04-01T02:41:58;94220.13;;;7.34;100.00
27429;BME280;14881;48.092;11.574;2023-04-01T02:44:26;94216.91;;;7.32;100.00
27429;BME280;14881;48.092;11.574;2023-04-01T02:46:54;94211.22;;;7.34;100.00
27429;BME280;14881;48.092;11.574;2023-04-01T02:49:22;94208.81;;;7.32;100.00
27429;BME280;14881;48.092;11.574;2023-04-01T02:51:49;94213.13;;;7.33;100.00
27429;BME280;14881;48.092;11.574;2023-04-01T02:54:18;94208.91;;;7.27;100.00
27429;BME280;14881;48.092;11.574;2023-04-01T02:56:47;94222.75;;;7.26;100.00
27429;BME280;14881;48.092;11.574;2023-04-01T02:59:15;94212.75;;;7.26;100.00
27429;BME280;14881;48.092;11.574;2023-04-01T03:01:43;94221.66;;;7.27;100.00
27429;BME280;14881;48.092;11.574;2023-04-01T03:04:10;94214.72;;;7.21;100.00
27429;BME280;14881;48.092;11.574;2023-04-01T03:06:38;94206.22;;;7.14;100.00
27429;BME280;14881;48.092;11.574;2023-04-01T03:09:06;94214.91;;;7.11;100.00
27429;BME280;14881;48.092;11.574;2023-04-01T03:11:34;94210.81;;;7.13;100.00
27429;BME280;14881;48.092;11.574;2023-04-01T03:14:03;94216.81;;;7.10;100.00
27429;BME280;14881;48.092;11.574;2023-04-01T03:16:31;94241.03;;;7.15;100.00
27429;BME280;14881;48.092;11.574;2023-04-01T03:18:59;94240.34;;;7.10;100.00
27429;BME280;14881;48.092;11.574;2023-04-01T03:21:28;94226.03;;;7.09;100.00
27429;BME280;14881;48.092;11.574;2023-04-01T03:23:56;94228.03;;;7.04;100.00
27429;BME280;14881;48.092;11.574;2023-04-01T03:26:24;94232.41;;;6.99;100.00
27429;BME280;14881;48.092;11.574;2023-04-01T03:28:54;94232.22;;;6.96;100.00
27429;BME280;14881;48.092;11.574;2023-04-01T03:31:23;94236.28;;;6.93;100.00
27429;BME280;14881;48.092;11.574;2023-04-01T03:33:52;94229.41;;;7.01;100.00
27429;BME280;14881;48.092;11.574;2023-04-01T03:36:19;94231.31;;;7.01;100.00
27429;BME280;14881;48.092;11.574;2023-04-01T03:38:48;94236.91;;;6.90;100.00
27429;BME280;14881;48.092;11.574;2023-04-01T03:41:16;94239.78;;;6.80;100.00
27429;BME280;14881;48.092;11.574;2023-04-01T03:43:45;94226.88;;;6.77;100.00
27429;BME280;14881;48.092;11.574;2023-04-01T03:46:17;94239.56;;;6.77;100.00
27429;BME280;14881;48.092;11.574;2023-04-01T03:48:46;94241.09;;;6.83;100.00
27429;BME280;14881;48.092;11.574;2023-04-01T03:51:14;94248.38;;;6.82;100.00
27429;BME280;14881;48.092;11.574;2023-04-01T03:53:43;94244.59;;;6.83;100.00
27429;BME280;14881;48.092;11.574;2023-04-01T03:56:11;94248.97;;;6.79;100.00
27429;BME280;14881;48.092;11.574;2023-04-01T03:58:39;94250.56;;;6.80;100.00
27429;BME280;14881;48.092;11.574;2023-04-01T04:01:14;94251.97;;;6.78;100.00
27429;BME280;14881;48.092;11.574;2023-04-01T04:03:42;94250.78;;;6.70;100.00
27429;BME280;14881;48.092;11.574;2023-04-01T04:06:12;94253.97;;;6.72;100.00
27429;BME280;14881;48.092;11.574;2023-04-01T04:08:41;94256.75;;;6.67;100.00
27429;BME280;14881;48.092;11.574;2023-04-01T04:11:09;94246.84;;;6.62;100.00
27429;BME280;14881;48.092;11.574;2023-04-01T04:13:42;94244.66;;;6.64;100.00
27429;BME280;14881;48.092;11.574;2023-04-01T04:16:10;94236.47;;;6.70;100.00
27429;BME280;14881;48.092;11.574;2023-04-01T04:18:38;94252.16;;;6.68;100.00
27429;BME280;14881;48.092;11.574;2023-04-01T04:21:06;94252.44;;;6.66;100.00
27429;BME280;14881;48.092;11.574;2023-04-01T04:23:35;94256.53;;;6.63;100.00
27429;BME280;14881;48.092;11.574;2023-04-01T04:26:05;94261.38;;;6.80;100.00
27429;BME280;14881;48.092;11.574;2023-04-01T04:28:34;94255.19;;;6.80;100.00
27429;BME280;14881;48.092;11.574;2023-04-01T04:31:02;94253.06;;;6.77;100.00
27429;BME280;14881;48.092;11.574;2023-04-01T04:33:31;94243.06;;;6.77;100.00
27429;BME280;14881;48.092;11.574;2023-04-01T04:35:59;94254.16;;;6.76;100.00
27429;BME280;14881;48.092;11.574;2023-04-01T04:38:28;94258.56;;;6.72;100.00
27429;BME280;14881;48.092;11.574;2023-04-01T04:40:58;94266.75;;;6.67;100.00
27429;BME280;14881;48.092;11.574;2023-04-01T04:43:25;94266.38;;;6.73;100.00
27429;BME280;14881;48.092;11.574;2023-04-01T04:45:53;94278.97;;;6.78;100.00
27429;BME280;14881;48.092;11.574;2023-04-01T04:48:21;94273.06;;;6.76;100.00
27429;BME280;14881;48.092;11.574;2023-04-01T04:50:49;94277.34;;;6.77;100.00
27429;BME280;14881;48.092;11.574;2023-04-01T04:53:18;94275.44;;;6.77;100.00
27429;BME280;14881;48.092;11.574;2023-04-01T04:55:47;94278.28;;;6.86;100.00
27429;BME280;14881;48.092;11.574;2023-04-01T04:58:17;94277.50;;;6.85;100.00
27429;BME280;14881;48.092;11.574;2023-04-01T05:00:45;94276.91;;;6.88;100.00
27429;BME280;14881;48.092;11.574;2023-04-01T05:03:14;94277.50;;;6.99;100.00
27429;BME280;14881;48.092;11.574;2023-04-01T05:05:48;94271.53;;;7.02;100.00
27429;BME280;14881;48.092;11.574;2023-04-01T05:08:16;94273.53;;;7.10;100.00
27429;BME280;14881;48.092;11.574;2023-04-01T05:10:44;94280.53;;;7.11;100.00
27429;BME280;14881;48.092;11.574;2023-04-01T05:13:12;94271.53;;;7.16;100.00
27429;BME280;14881;48.092;11.574;2023-04-01T05:15:41;94270.72;;;7.15;100.00
27429;BME280;14881;48.092;11.574;2023-04-01T05:18:08;94267.66;;;7.22;100.00
27429;BME280;14881;48.092;11.574;2023-04-01T05:20:36;94270.56;;;7.25;100.00
27429;BME280;14881;48.092;11.574;2023-04-01T05:23:04;94269.25;;;7.23;100.00
27429;BME280;14881;48.092;11.574;2023-04-01T05:25:32;94261.84;;;7.28;100.00
27429;BME280;14881;48.092;11.574;2023-04-01T05:28:00;94269.34;;;7.31;100.00
27429;BME280;14881;48.092;11.574;2023-04-01T05:30:28;94265.25;;;7.34;100.00
27429;BME280;14881;48.092;11.574;2023-04-01T05:32:57;94256.03;;;7.35;100.00
27429;BME280;14881;48.092;11.574;2023-04-01T05:35:25;94261.03;;;7.28;100.00
27429;BME280;14881;48.092;11.574;2023-04-01T05:37:52;94251.84;;;7.29;100.00
27429;BME280;14881;48.092;11.574;2023-04-01T05:40:20;94261.16;;;7.37;100.00
27429;BME280;14881;48.092;11.574;2023-04-01T05:42:48;94257.84;;;7.40;100.00
27429;BME280;14881;48.092;11.574;2023-04-01T05:45:16;94260.44;;;7.45;100.00
27429;BME280;14881;48.092;11.574;2023-04-01T05:47:43;94260.44;;;7.45;100.00
27429;BME280;14881;48.092;11.574;2023-04-01T05:50:13;94264.16;;;7.49;100.00
27429;BME280;14881;48.092;11.574;2023-04-01T05:52:41;94269.25;;;7.50;100.00
27429;BME280;14881;48.092;11.574;2023-04-01T05:55:09;94264.06;;;7.54;100.00
27429;BME280;14881;48.092;11.574;2023-04-01T05:57:37;94266.75;;;7.54;100.00
27429;BME280;14881;48.092;11.574;2023-04-01T06:00:06;94261.84;;;7.56;100.00
27429;BME280;14881;48.092;11.574;2023-04-01T06:02:34;94264.47;;;7.61;100.00
27429;BME280;14881;48.092;11.574;2023-04-01T06:05:03;94266.75;;;7.67;100.00
27429;BME280;14881;48.092;11.574;2023-04-01T06:07:40;94252.81;;;7.74;100.00
27429;BME280;14881;48.092;11.574;2023-04-01T06:10:13;94268.44;;;7.77;100.00
27429;BME280;14881;48.092;11.574;2023-04-01T06:12:57;94262.25;;;7.77;100.00
27429;BME280;14881;48.092;11.574;2023-04-01T06:15:37;94262.03;;;7.73;100.00
27429;BME280;14881;48.092;11.574;2023-04-01T06:24:23;94262.75;;;7.79;100.00
27429;BME280;14881;48.092;11.574;2023-04-01T06:27:02;94274.22;;;7.84;100.00
27429;BME280;14881;48.092;11.574;2023-04-01T06:29:47;94276.53;;;7.91;100.00
27429;BME280;14881;48.092;11.574;2023-04-01T06:32:39;94265.91;;;7.94;100.00
27429;BME280;14881;48.092;11.574;2023-04-01T06:35:42;94266.59;;;8.00;100.00
27429;BME280;14881;48.092;11.574;2023-04-01T06:38:24;94278.50;;;7.99;100.00
27429;BME280;14881;48.092;11.574;2023-04-01T06:44:14;94274.38;;;8.15;100.00
27429;BME280;14881;48.092;11.574;2023-04-01T06:46:47;94277.56;;;8.17;100.00
27429;BME280;14881;48.092;11.574;2023-04-01T06:49:32;94258.75;;;8.12;100.00
27429;BME280;14881;48.092;11.574;2023-04-01T06:52:02;94273.69;;;8.10;100.00
27429;BME280;14881;48.092;11.574;2023-04-01T06:54:36;94269.09;;;8.10;100.00
27429;BME280;14881;48.092;11.574;2023-04-01T06:57:18;94277.56;;;8.17;100.00
27429;BME280;14881;48.092;11.574;2023-04-01T06:59:49;94278.44;;;8.40;100.00
27429;BME280;14881;48.092;11.574;2023-04-01T07:02:24;94274.97;;;8.62;100.00
27429;BME280;14881;48.092;11.574;2023-04-01T07:04:53;94286.56;;;8.85;100.00
27429;BME280;14881;48.092;11.574;2023-04-01T07:07:30;94282.44;;;9.10;100.00
27429;BME280;14881;48.092;11.574;2023-04-01T07:10:04;94279.44;;;9.20;100.00
27429;BME280;14881;48.092;11.574;2023-04-01T07:12:40;94290.28;;;9.20;100.00
27429;BME280;14881;48.092;11.574;2023-04-01T07:15:16;94283.59;;;9.17;100.00
27429;BME280;14881;48.092;11.574;2023-04-01T07:17:45;94277.69;;;9.15;100.00
27429;BME280;14881;48.092;11.574;2023-04-01T07:20:19;94280.09;;;9.17;100.00
27429;BME280;14881;48.092;11.574;2023-04-01T07:22:49;94274.97;;;9.15;100.00
27429;BME280;14881;48.092;11.574;2023-04-01T07:25:20;94279.22;;;9.07;100.00
27429;BME280;14881;48.092;11.574;2023-04-01T07:27:50;94283.50;;;9.00;100.00
27429;BME280;14881;48.092;11.574;2023-04-01T07:30:22;94281.56;;;9.00;100.00
27429;BME280;14881;48.092;11.574;2023-04-01T07:32:54;94281.03;;;9.21;100.00
27429;BME280;14881;48.092;11.574;2023-04-01T07:35:28;94271.59;;;9.10;100.00
27429;BME280;14881;48.092;11.574;2023-04-01T07:38:13;94267.09;;;9.05;100.00
27429;BME280;14881;48.092;11.574;2023-04-01T07:40:48;94278.84;;;9.00;100.00
27429;BME280;14881;48.092;11.574;2023-04-01T07:43:45;94276.72;;;9.20;100.00
27429;BME280;14881;48.092;11.574;2023-04-01T07:46:22;94281.94;;;9.38;100.00
27429;BME280;14881;48.092;11.574;2023-04-01T07:49:01;94278.78;;;9.54;100.00
27429;BME280;14881;48.092;11.574;2023-04-01T07:51:39;94267.56;;;9.69;100.00
27429;BME280;14881;48.092;11.574;2023-04-01T07:54:16;94267.50;;;9.60;100.00
27429;BME280;14881;48.092;11.574;2023-04-01T07:56:50;94274.78;;;9.91;100.00
27429;BME280;14881;48.092;11.574;2023-04-01T07:59:26;94289.34;;;10.12;100.00
27429;BME280;14881;48.092;11.574;2023-04-01T08:02:02;94277.88;;;10.15;100.00
27429;BME280;14881;48.092;11.574;2023-04-01T08:04:53;94281.53;;;10.02;100.00
27429;BME280;14881;48.092;11.574;2023-04-01T08:07:25;94282.63;;;10.09;100.00
27429;BME280;14881;48.092;11.574;2023-04-01T08:10:04;94291.50;;;10.32;100.00
27429;BME280;14881;48.092;11.574;2023-04-01T08:12:45;94274.84;;;10.17;100.00
27429;BME280;14881;48.092;11.574;2023-04-01T08:15:21;94276.72;;;9.99;100.00
27429;BME280;14881;48.092;11.574;2023-04-01T08:18:10;94288.06;;;10.09;100.00
27429;BME280;14881;48.092;11.574;2023-04-01T08:20:46;94281.34;;;9.98;100.00
27429;BME280;14881;48.092;11.574;2023-04-01T08:23:18;94264.44;;;10.01;100.00
27429;BME280;14881;48.092;11.574;2023-04-01T08:25:52;94271.53;;;10.20;100.00
27429;BME280;14881;48.092;11.574;2023-04-01T08:28:23;94273.06;;;10.12;100.00
27429;BME280;14881;48.092;11.574;2023-04-01T08:30:57;94280.06;;;10.04;100.00
27429;BME280;14881;48.092;11.574;2023-04-01T08:33:29;94267.88;;;10.33;100.00
27429;BME280;14881;48.092;11.574;2023-04-01T08:36:01;94265.78;;;10.64;100.00
27429;BME280;14881;48.092;11.574;2023-04-01T08:38:32;94251.53;;;10.76;100.00
27429;BME280;14881;48.092;11.574;2023-04-01T08:44:24;94262.59;;;10.62;100.00
27429;BME280;14881;48.092;11.574;2023-04-01T08:47:13;94254.78;;;10.52;100.00
27429;BME280;14881;48.092;11.574;2023-04-01T08:50:00;94260.81;;;10.84;100.00
27429;BME280;14881;48.092;11.574;2023-04-01T08:52:36;94254.06;;;10.98;100.00
27429;BME280;14881;48.092;11.574;2023-04-01T08:55:36;94252.00;;;10.95;100.00
27429;BME280;14881;48.092;11.574;2023-04-01T08:58:45;94255.72;;;10.65;100.00
27429;BME280;14881;48.092;11.574;2023-04-01T09:01:39;94251.88;;;10.83;100.00
27429;BME280;14881;48.092;11.574;2023-04-01T09:04:23;94262.06;;;11.03;100.00
27429;BME280;14881;48.092;11.574;2023-04-01T09:07:01;94265.66;;;11.33;100.00
27429;BME280;14881;48.092;11.574;2023-04-01T09:10:06;94243.47;;;11.23;100.00
27429;BME280;14881;48.092;11.574;2023-04-01T09:15:50;94245.41;;;11.13;100.00
27429;BME280;14881;48.092;11.574;2023-04-01T09:18:32;94259.72;;;11.40;100.00
27429;BME280;14881;48.092;11.574;2023-04-01T09:21:19;94234.84;;;11.97;100.00
27429;BME280;14881;48.092;11.574;2023-04-01T09:24:22;94254.69;;;11.97;100.00
27429;BME280;14881;48.092;11.574;2023-04-01T09:27:02;94241.94;;;11.89;100.00
27429;BME280;14881;48.092;11.574;2023-04-01T09:29:47;94242.47;;;11.74;100.00
27429;BME280;14881;48.092;11.574;2023-04-01T09:32:33;94254.34;;;11.61;100.00
27429;BME280;14881;48.092;11.574;2023-04-01T09:35:20;94231.03;;;11.51;100.00
27429;BME280;14881;48.092;11.574;2023-04-01T09:37:59;94234.50;;;11.60;100.00
27429;BME280;14881;48.092;11.574;2023-04-01T09:40:38;94228.25;;;11.68;100.00
27429;BME280;14881;48.092;11.574;2023-04-01T09:43:22;94227.72;;;11.83;100.00
27429;BME280;14881;48.092;11.574;2023-04-01T09:46:06;94230.28;;;11.80;100.00
27429;BME280;14881;48.092;11.574;2023-04-01T09:49:04;94222.03;;;12.18;100.00
27429;BME280;14881;48.092;11.574;2023-04-01T09:51:45;94220.06;;;12.48;100.00
27429;BME280;14881;48.092;11.574;2023-04-01T09:54:34;94217.25;;;12.77;100.00
27429;BME280;14881;48.092;11.574;2023-04-01T09:57:41;94212.25;;;12.79;100.00
27429;BME280;14881;48.092;11.574;2023-04-01T10:00:37;94212.25;;;12.79;100.00
27429;BME280;14881;48.092;11.574;2023-04-01T10:03:54;94212.69;;;12.81;100.00
27429;BME280;14881;48.092;11.574;2023-04-01T10:06:50;94214.72;;;12.72;100.00
27429;BME280;14881;48.092;11.574;2023-04-01T10:09:49;94208.97;;;12.53;100.00
27429;BME280;14881;48.092;11.574;2023-04-01T10:12:58;94228.28;;;12.18;100.00
27429;BME280;14881;48.092;11.574;2023-04-01T10:15:48;94212.50;;;12.12;100.00
27429;BME280;14881;48.092;11.574;2023-04-01T10:18:40;94212.69;;;12.07;100.00
27429;BME280;14881;48.092;11.574;2023-04-01T10:21:25;94226.75;;;11.79;100.00
27429;BME280;14881;48.092;11.574;2023-04-01T10:27:33;94225.38;;;11.65;100.00
27429;BME280;14881;48.092;11.574;2023-04-01T10:30:32;94203.84;;;11.51;100.00
27429;BME280;14881;48.092;11.574;2023-04-01T10:33:44;94220.41;;;11.96;100.00
27429;BME280;14881;48.092;11.574;2023-04-01T10:36:41;94225.34;;;12.03;100.00
27429;BME280;14881;48.092;11.574;2023-04-01T10:39:37;94210.03;;;12.19;100.00
27429;BME280;14881;48.092;11.574;2023-04-01T10:42:54;94201.94;;;12.10;100.00
27429;BME280;14881;48.092;11.574;2023-04-01T10:48:57;94216.66;;;11.89;100.00
27429;BME280;14881;48.092;11.574;2023-04-01T10:51:55;94215.88;;;11.79;100.00
27429;BME280;14881;48.092;11.574;2023-04-01T10:54:43;94208.00;;;11.57;100.00
27429;BME280;14881;48.092;11.574;2023-04-01T10:57:31;94220.91;;;11.60;100.00
27429;BME280;14881;48.092;11.574;2023-04-01T11:00:39;94228.63;;;11.58;100.00
27429;BME280;14881;48.092;11.574;2023-04-01T11:06:54;94223.53;;;11.86;100.00
27429;BME280;14881;48.092;11.574;2023-04-01T11:13:14;94216.72;;;12.01;100.00
27429;BME280;14881;48.092;11.574;2023-04-01T11:16:08;94232.88;;;11.76;100.00
27429;BME280;14881;48.092;11.574;2023-04-01T11:22:05;94241.94;;;11.89;100.00
27429;BME280;14881;48.092;11.574;2023-04-01T11:27:50;94231.44;;;11.32;100.00
27429;BME280;14881;48.092;11.574;2023-04-01T11:30:29;94243.38;;;11.48;100.00
27429;BME280;14881;48.092;11.574;2023-04-01T11:33:04;94248.91;;;11.23;100.00
27429;BME280;14881;48.092;11.574;2023-04-01T11:35:53;94242.38;;;11.15;100.00
27429;BME280;14881;48.092;11.574;2023-04-01T11:38:36;94251.47;;;11.10;100.00
27429;BME280;14881;48.092;11.574;2023-04-01T11:41:20;94243.50;;;11.14;100.00
27429;BME280;14881;48.092;11.574;2023-04-01T11:44:04;94247.06;;;11.44;100.00
27429;BME280;14881;48.092;11.574;2023-04-01T11:46:42;94259.44;;;11.33;100.00
27429;BME280;14881;48.092;11.574;2023-04-01T11:49:26;94279.50;;;10.59;100.00
27429;BME280;14881;48.092;11.574;2023-04-01T11:52:07;94289.63;;;9.93;100.00
27429;BME280;14881;48.092;11.574;2023-04-01T11:54:57;94315.16;;;9.53;100.00
27429;BME280;14881;48.092;11.574;2023-04-01T11:58:03;94306.78;;;9.32;100.00
27429;BME280;14881;48.092;11.574;2023-04-01T12:03:46;94322.06;;;8.83;100.00
27429;BME280;14881;48.092;11.574;2023-04-01T12:06:23;94321.84;;;8.71;100.00
27429;BME280;14881;48.092;11.574;2023-04-01T12:09:03;94328.66;;;8.68;100.00
27429;BME280;14881;48.092;11.574;2023-04-01T12:11:35;94303.63;;;8.85;100.00
27429;BME280;14881;48.092;11.574;2023-04-01T12:14:12;94310.13;;;8.84;100.00
27429;BME280;14881;48.092;11.574;2023-04-01T12:16:51;94310.94;;;8.85;100.00
27429;BME280;14881;48.092;11.574;2023-04-01T12:19:27;94310.13;;;8.84;100.00
27429;BME280;14881;48.092;11.574;2023-04-01T12:22:11;94319.31;;;8.97;100.00
27429;BME280;14881;48.092;11.574;2023-04-01T12:24:49;94305.81;;;8.83;100.00
27429;BME280;14881;48.092;11.574;2023-04-01T12:27:29;94307.25;;;8.81;100.00
27429;BME280;14881;48.092;11.574;2023-04-01T12:30:14;94306.38;;;8.71;100.00
27429;BME280;14881;48.092;11.574;2023-04-01T12:32:47;94300.72;;;8.59;100.00
27429;BME280;14881;48.092;11.574;2023-04-01T12:35:23;94296.34;;;8.50;100.00
27429;BME280;14881;48.092;11.574;2023-04-01T12:38:02;94309.41;;;8.48;100.00
27429;BME280;14881;48.092;11.574;2023-04-01T12:44:21;94296.09;;;8.37;100.00
27429;BME280;14881;48.092;11.574;2023-04-01T12:47:06;94306.41;;;8.35;100.00
27429;BME280;14881;48.092;11.574;2023-04-01T12:49:44;94306.81;;;8.43;100.00
27429;BME280;14881;48.092;11.574;2023-04-01T12:52:19;94305.19;;;8.42;100.00
27429;BME280;14881;48.092;11.574;2023-04-01T12:55:21;94306.00;;;8.42;100.00
27429;BME280;14881;48.092;11.574;2023-04-01T12:58:15;94308.81;;;8.37;100.00
27429;BME280;14881;48.092;11.574;2023-04-01T13:01:04;94301.59;;;8.32;100.00
27429;BME280;14881;48.092;11.574;2023-04-01T13:03:55;94300.91;;;8.27;100.00
27429;BME280;14881;48.092;11.574;2023-04-01T13:06:33;94317.75;;;8.24;100.00
27429;BME280;14881;48.092;11.574;2023-04-01T13:09:25;94301.13;;;8.17;100.00
27429;BME280;14881;48.092;11.574;2023-04-01T13:12:14;94305.84;;;8.11;100.00
27429;BME280;14881;48.092;11.574;2023-04-01T13:15:09;94317.16;;;8.13;100.00
27429;BME280;14881;48.092;11.574;2023-04-01T13:17:46;94313.84;;;8.16;100.00
27429;BME280;14881;48.092;11.574;2023-04-01T13:20:28;94317.75;;;8.24;100.00
27429;BME280;14881;48.092;11.574;2023-04-01T13:23:07;94308.72;;;8.28;100.00
27429;BME280;14881;48.092;11.574;2023-04-01T13:25:43;94314.72;;;8.39;100.00
27429;BME280;14881;48.092;11.574;2023-04-01T13:28:20;94317.72;;;8.37;100.00
27429;BME280;14881;48.092;11.574;2023-04-01T13:30:55;94335.69;;;8.33;100.00
27429;BME280;14881;48.092;11.574;2023-04-01T13:33:32;94319.94;;;8.22;100.00
27429;BME280;14881;48.092;11.574;2023-04-01T13:36:14;94323.66;;;8.26;100.00
27429;BME280;14881;48.092;11.574;2023-04-01T13:41:59;94337.41;;;8.02;100.00
27429;BME280;14881;48.092;11.574;2023-04-01T13:44:35;94338.50;;;8.01;100.00
27429;BME280;14881;48.092;11.574;2023-04-01T13:47:16;94330.00;;;8.08;100.00
27429;BME280;14881;48.092;11.574;2023-04-01T13:50:22;94334.97;;;8.14;100.00
27429;BME280;14881;48.092;11.574;2023-04-01T13:53:20;94327.38;;;8.16;100.00
27429;BME280;14881;48.092;11.574;2023-04-01T13:55:58;94324.44;;;8.26;100.00
27429;BME280;14881;48.092;11.574;2023-04-01T14:01:39;94328.34;;;8.48;100.00
27429;BME280;14881;48.092;11.574;2023-04-01T14:04:30;94328.91;;;8.58;100.00
27429;BME280;14881;48.092;11.574;2023-04-01T14:07:10;94326.69;;;8.60;100.00
27429;BME280;14881;48.092;11.574;2023-04-01T14:09:48;94325.19;;;8.54;100.00
27429;BME280;14881;48.092;11.574;2023-04-01T14:12:30;94329.50;;;8.55;100.00
27429;BME280;14881;48.092;11.574;2023-04-01T14:15:11;94330.31;;;8.56;100.00
27429;BME280;14881;48.092;11.574;2023-04-01T14:18:02;94322.94;;;8.48;100.00
27429;BME280;14881;48.092;11.574;2023-04-01T14:20:40;94333.94;;;8.51;100.00
27429;BME280;14881;48.092;11.574;2023-04-01T14:23:31;94317.03;;;8.46;100.00
27429;BME280;14881;48.092;11.574;2023-04-01T14:26:10;94327.44;;;8.38;100.00
27429;BME280;14881;48.092;11.574;2023-04-01T14:28:52;94336.28;;;8.44;100.00
27429;BME280;14881;48.092;11.574;2023-04-01T14:31:44;94340.84;;;8.57;100.00